Time;durP1;ratioP1;P1;durP2;ratioP2;P2;SDS_P1;SDS_P2;PMS_P1;PMS_P2;Temp;Humidity;BMP_temperature;BMP_pressure;BME280_temperature;BME280_humidity;BME280_pressure;Samples;Min_cycle;Max_cycle;Signal;HPM_P1;HPM_P2
2021/12/29 00:00:04;;;;;;;3.43;0.90;;;;;;;;;;5010645;28;20777;-70
2021/12/29 00:02:30;;;;;;;2.40;1.10;;;;;;;;;;5010794;28;20402;-70
2021/12/29 00:04:56;;;;;;;1.70;0.70;;;;;;;;;;5010559;28;20552;-71
2021/12/29 00:07:23;;;;;;;1.67;0.80;;;;;;;;;;5011462;28;20838;-70
2021/12/29 00:09:50;;;;;;;1.10;0.63;;;;;;;;;;5011332;28;20429;-70
2021/12/29 00:12:24;;;;;;;1.73;0.90;;;;;;;;;;5011090;28;20421;-71
2021/12/29 00:14:50;;;;;;;1.63;0.87;;;;;;;;;;5014756;28;20925;-71
2021/12/29 00:17:16;;;;;;;1.80;0.87;;;;;;;;;;5014831;28;20413;-73
2021/12/29 00:19:42;;;;;;;2.13;1.03;;;;;;;;;;5015193;28;20406;-73
2021/12/29 00:22:08;;;;;;;1.00;0.60;;;;;;;;;;5014476;28;20418;-74
2021/12/29 00:24:35;;;;;;;4.00;1.23;;;;;;;;;;5014862;28;20499;-74
2021/12/29 00:27:01;;;;;;;3.33;0.80;;;;;;;;;;5015045;28;20940;-72
2021/12/29 00:29:27;;;;;;;10.37;1.10;;;;;;;;;;5014570;28;20452;-73
2021/12/29 00:31:53;;;;;;;5.70;0.90;;;;;;;;;;5014484;28;20421;-76
2021/12/29 00:34:20;;;;;;;4.73;0.73;;;;;;;;;;5014810;28;20433;-75
2021/12/29 00:36:46;;;;;;;12.10;1.30;;;;;;;;;;5014692;28;20413;-77
2021/12/29 00:39:12;;;;;;;26.17;1.13;;;;;;;;;;5014856;28;20902;-77
2021/12/29 00:41:38;;;;;;;1.30;0.70;;;;;;;;;;5014098;28;20414;-77
2021/12/29 00:44:06;;;;;;;1.13;0.60;;;;;;;;;;5014538;28;20437;-77
2021/12/29 00:46:32;;;;;;;1.37;0.80;;;;;;;;;;5014819;28;20520;-75
2021/12/29 00:48:59;;;;;;;5.20;0.80;;;;;;;;;;5014776;28;20513;-74
2021/12/29 00:51:25;;;;;;;8.20;0.87;;;;;;;;;;5010600;28;20421;-73
2021/12/29 00:53:51;;;;;;;14.47;1.50;;;;;;;;;;5010867;28;20445;-76
2021/12/29 00:56:17;;;;;;;0.90;0.53;;;;;;;;;;5011238;28;20422;-75
2021/12/29 00:58:44;;;;;;;3.67;1.20;;;;;;;;;;5011078;28;20414;-76
2021/12/29 01:01:10;;;;;;;3.00;1.13;;;;;;;;;;5010731;28;20895;-75
2021/12/29 01:03:38;;;;;;;4.10;2.20;;;;;;;;;;5011027;28;20938;-75
2021/12/29 01:06:04;;;;;;;2.10;1.00;;;;;;;;;;5010539;28;20470;-73
2021/12/29 01:08:30;;;;;;;2.97;0.80;;;;;;;;;;5010876;28;20908;-74
2021/12/29 01:10:56;;;;;;;4.13;0.90;;;;;;;;;;5010381;28;20430;-73
2021/12/29 01:13:30;;;;;;;2.10;0.80;;;;;;;;;;5010567;28;20517;-75
2021/12/29 01:15:59;;;;;;;2.50;1.27;;;;;;;;;;5010888;28;20422;-76
2021/12/29 01:18:26;;;;;;;1.00;0.60;;;;;;;;;;5010519;28;20426;-76
2021/12/29 01:20:52;;;;;;;4.50;1.23;;;;;;;;;;5010197;28;20469;-76
2021/12/29 01:23:18;;;;;;;3.40;1.00;;;;;;;;;;5010452;28;20438;-77
2021/12/29 01:25:44;;;;;;;2.37;1.00;;;;;;;;;;5010325;28;20481;-75
2021/12/29 01:28:10;;;;;;;4.73;1.07;;;;;;;;;;5010398;28;20799;-75
2021/12/29 01:30:36;;;;;;;1.50;0.90;;;;;;;;;;5009278;28;20415;-74
2021/12/29 01:33:06;;;;;;;1.30;0.70;;;;;;;;;;5010376;28;20435;-74
2021/12/29 01:35:32;;;;;;;1.17;0.60;;;;;;;;;;5010257;28;20422;-72
2021/12/29 01:37:58;;;;;;;1.97;1.03;;;;;;;;;;5010447;28;20426;-74
2021/12/29 01:40:24;;;;;;;1.47;0.67;;;;;;;;;;5009976;28;20423;-71
2021/12/29 01:42:50;;;;;;;8.93;0.90;;;;;;;;;;5009747;28;20434;-72
2021/12/29 01:45:16;;;;;;;1.40;0.87;;;;;;;;;;5010186;28;20489;-71
2021/12/29 01:47:43;;;;;;;6.20;0.93;;;;;;;;;;5010188;28;20414;-72
2021/12/29 01:50:10;;;;;;;1.00;0.60;;;;;;;;;;5009662;28;20426;-72
2021/12/29 01:52:39;;;;;;;4.90;1.00;;;;;;;;;;5009889;28;20783;-72
2021/12/29 01:55:06;;;;;;;7.77;1.00;;;;;;;;;;5010038;28;20458;-72
2021/12/29 01:57:33;;;;;;;1.00;0.60;;;;;;;;;;5009916;28;20425;-73
2021/12/29 02:00:00;;;;;;;1.57;0.70;;;;;;;;;;5009971;28;20560;-73
2021/12/29 02:02:26;;;;;;;1.37;0.90;;;;;;;;;;5009583;28;20425;-74
2021/12/29 02:04:52;;;;;;;1.00;0.53;;;;;;;;;;5009507;28;20465;-77
2021/12/29 02:07:18;;;;;;;4.40;0.90;;;;;;;;;;5009817;28;20465;-75
2021/12/29 02:09:44;;;;;;;1.40;0.80;;;;;;;;;;5009631;28;20476;-77
2021/12/29 02:12:10;;;;;;;3.40;0.80;;;;;;;;;;5009247;28;20445;-76
2021/12/29 02:14:36;;;;;;;2.80;0.80;;;;;;;;;;5009506;28;20437;-74
2021/12/29 02:17:03;;;;;;;1.80;0.80;;;;;;;;;;5009691;28;20907;-75
2021/12/29 02:19:29;;;;;;;3.97;0.90;;;;;;;;;;5009397;28;20469;-75
2021/12/29 02:22:12;;;;;;;1.10;0.70;;;;;;;;;;5009140;28;20441;-77
2021/12/29 02:24:44;;;;;;;1.10;0.50;;;;;;;;;;5009245;28;20477;-74
2021/12/29 02:27:13;;;;;;;2.50;0.60;;;;;;;;;;5009288;28;20410;-76
2021/12/29 02:29:42;;;;;;;3.10;0.73;;;;;;;;;;5009015;28;20930;-77
2021/12/29 02:32:08;;;;;;;2.13;0.80;;;;;;;;;;5009093;28;20414;-74
2021/12/29 02:34:34;;;;;;;1.27;0.73;;;;;;;;;;5009178;28;20430;-78
2021/12/29 02:37:03;;;;;;;1.63;0.73;;;;;;;;;;5008845;28;20421;-74
2021/12/29 02:39:36;;;;;;;6.40;1.20;;;;;;;;;;5009432;28;20426;-74
2021/12/29 02:42:05;;;;;;;6.90;1.50;;;;;;;;;;5008466;28;20501;-73
2021/12/29 02:44:38;;;;;;;5.43;0.97;;;;;;;;;;5009032;28;20957;-72
2021/12/29 02:47:04;;;;;;;2.47;0.90;;;;;;;;;;5009301;28;20446;-72
2021/12/29 02:49:30;;;;;;;2.23;0.73;;;;;;;;;;4994102;28;20740;-72
2021/12/29 02:51:56;;;;;;;1.33;0.80;;;;;;;;;;5008755;28;20464;-70
2021/12/29 02:54:22;;;;;;;1.30;0.80;;;;;;;;;;5008878;28;20422;-70
2021/12/29 02:56:54;;;;;;;1.87;0.73;;;;;;;;;;5008882;28;20410;-72
2021/12/29 02:59:20;;;;;;;1.40;0.70;;;;;;;;;;5009057;28;20496;-71
2021/12/29 03:01:46;;;;;;;5.67;0.90;;;;;;;;;;5008660;28;20796;-74
2021/12/29 03:04:12;;;;;;;1.20;0.80;;;;;;;;;;5008581;28;20427;-77
2021/12/29 03:06:39;;;;;;;4.10;0.90;;;;;;;;;;5008638;28;20414;-77
2021/12/29 03:09:06;;;;;;;2.90;0.70;;;;;;;;;;5009014;28;20441;-70
2021/12/29 03:11:32;;;;;;;1.00;0.53;;;;;;;;;;4993272;28;20504;-72
2021/12/29 03:13:59;;;;;;;2.53;1.00;;;;;;;;;;5008778;28;20505;-73
2021/12/29 03:16:25;;;;;;;10.47;1.13;;;;;;;;;;5008935;28;20419;-73
2021/12/29 03:18:51;;;;;;;5.23;0.90;;;;;;;;;;5008206;28;20816;-71
2021/12/29 03:21:17;;;;;;;7.37;0.80;;;;;;;;;;5008447;28;20406;-71
2021/12/29 03:23:43;;;;;;;1.60;0.83;;;;;;;;;;5008586;28;20930;-72
2021/12/29 03:26:09;;;;;;;3.97;0.90;;;;;;;;;;5008426;28;20966;-73
2021/12/29 03:28:37;;;;;;;20.30;0.97;;;;;;;;;;5008820;28;20449;-73
2021/12/29 03:31:03;;;;;;;2.43;0.90;;;;;;;;;;5007988;28;20445;-72
2021/12/29 03:33:30;;;;;;;4.17;0.80;;;;;;;;;;5008338;28;20422;-75
2021/12/29 03:36:01;;;;;;;1.20;0.70;;;;;;;;;;5008681;28;20422;-72
2021/12/29 03:38:28;;;;;;;0.97;0.53;;;;;;;;;;5008668;28;20411;-73
2021/12/29 03:40:56;;;;;;;19.23;1.50;;;;;;;;;;5008097;28;20429;-72
2021/12/29 03:43:22;;;;;;;3.53;0.70;;;;;;;;;;4993244;28;20429;-73
2021/12/29 03:45:51;;;;;;;3.17;0.90;;;;;;;;;;5008433;28;20520;-74
2021/12/29 03:48:18;;;;;;;5.57;0.97;;;;;;;;;;5010982;28;20481;-75
2021/12/29 03:50:46;;;;;;;1.00;0.53;;;;;;;;;;5012100;28;20484;-75
2021/12/29 03:53:14;;;;;;;16.20;1.07;;;;;;;;;;5012541;28;20438;-72
2021/12/29 03:55:40;;;;;;;3.87;0.87;;;;;;;;;;5012026;28;20410;-72
2021/12/29 03:58:06;;;;;;;1.20;0.67;;;;;;;;;;5012452;28;21035;-71
2021/12/29 04:00:32;;;;;;;6.90;0.80;;;;;;;;;;5011865;28;20417;-70
2021/12/29 04:02:58;;;;;;;2.07;0.70;;;;;;;;;;5012100;28;20438;-72
2021/12/29 04:05:25;;;;;;;7.80;0.70;;;;;;;;;;4997416;28;20461;-73
2021/12/29 04:07:53;;;;;;;5.67;0.70;;;;;;;;;;5011840;28;20414;-70
2021/12/29 04:10:19;;;;;;;5.10;0.80;;;;;;;;;;5011603;28;20469;-72
2021/12/29 04:12:45;;;;;;;10.43;1.03;;;;;;;;;;5011999;28;20426;-70
2021/12/29 04:15:12;;;;;;;4.30;0.93;;;;;;;;;;5012009;28;20445;-72
2021/12/29 04:17:40;;;;;;;4.70;1.00;;;;;;;;;;5011923;28;20418;-72
2021/12/29 04:23:02;;;;;;;13.83;0.90;;;;;;;;;;4997152;28;20477;-70
2021/12/29 04:25:34;;;;;;;2.90;1.20;;;;;;;;;;5013797;28;20460;-71
2021/12/29 04:28:01;;;;;;;1.83;0.80;;;;;;;;;;5015140;28;20420;-72
2021/12/29 04:30:27;;;;;;;1.43;0.73;;;;;;;;;;5013497;28;20413;-72
2021/12/29 04:32:53;;;;;;;6.13;0.77;;;;;;;;;;5013585;28;20434;-71
2021/12/29 04:35:23;;;;;;;4.30;0.80;;;;;;;;;;5015060;28;20468;-73
2021/12/29 04:37:49;;;;;;;2.00;0.80;;;;;;;;;;5014968;28;20417;-71
2021/12/29 04:40:16;;;;;;;2.43;0.60;;;;;;;;;;5014235;28;20431;-71
2021/12/29 04:42:42;;;;;;;6.50;1.30;;;;;;;;;;5014642;28;20425;-72
2021/12/29 04:45:08;;;;;;;2.60;0.80;;;;;;;;;;5014397;28;21007;-75
2021/12/29 04:47:39;;;;;;;2.13;0.67;;;;;;;;;;5014091;28;20505;-74
2021/12/29 04:50:07;;;;;;;4.50;1.23;;;;;;;;;;5014564;28;20971;-72
2021/12/29 04:52:33;;;;;;;3.17;0.63;;;;;;;;;;5014430;28;20953;-73
2021/12/29 04:54:59;;;;;;;1.43;0.60;;;;;;;;;;5014566;28;20451;-72
2021/12/29 04:57:26;;;;;;;1.37;0.70;;;;;;;;;;5014380;28;20437;-73
2021/12/29 04:59:52;;;;;;;7.33;1.43;;;;;;;;;;5013920;28;20480;-73
2021/12/29 05:02:18;;;;;;;2.50;0.90;;;;;;;;;;5013893;28;20448;-74
2021/12/29 05:04:55;;;;;;;1.00;0.60;;;;;;;;;;5014504;28;20465;-73
2021/12/29 05:10:06;;;;;;;7.33;0.77;;;;;;;;;;5015018;28;20420;-75
2021/12/29 05:12:32;;;;;;;3.43;0.60;;;;;;;;;;5014155;28;20514;-75
2021/12/29 05:14:58;;;;;;;2.70;0.70;;;;;;;;;;5014261;28;20417;-75
2021/12/29 05:17:24;;;;;;;1.00;0.53;;;;;;;;;;5015419;28;20444;-75
2021/12/29 05:19:50;;;;;;;1.73;0.73;;;;;;;;;;5014158;28;20916;-75
2021/12/29 05:22:17;;;;;;;2.80;0.60;;;;;;;;;;5013200;28;20414;-75
2021/12/29 05:24:43;;;;;;;0.90;0.50;;;;;;;;;;5013791;28;20457;-75
2021/12/29 05:27:09;;;;;;;1.07;0.60;;;;;;;;;;5014012;28;20765;-75
2021/12/29 05:29:35;;;;;;;0.90;0.50;;;;;;;;;;5013882;28;20500;-74
2021/12/29 05:32:01;;;;;;;5.00;0.80;;;;;;;;;;5013433;28;20418;-74
2021/12/29 05:34:27;;;;;;;2.20;0.70;;;;;;;;;;5013409;28;20836;-72
2021/12/29 05:36:53;;;;;;;1.30;0.50;;;;;;;;;;5013653;28;20414;-72
2021/12/29 05:39:19;;;;;;;2.27;0.70;;;;;;;;;;5013552;28;20447;-71
2021/12/29 05:41:45;;;;;;;5.97;0.70;;;;;;;;;;5013349;28;20421;-71
2021/12/29 05:44:12;;;;;;;3.47;0.63;;;;;;;;;;5013484;28;20430;-72
2021/12/29 05:46:38;;;;;;;2.63;1.10;;;;;;;;;;5012870;28;20471;-70
2021/12/29 05:49:04;;;;;;;14.77;0.93;;;;;;;;;;5013696;28;20461;-71
2021/12/29 05:51:30;;;;;;;2.90;0.80;;;;;;;;;;5013236;28;20436;-72
2021/12/29 05:53:56;;;;;;;11.27;0.80;;;;;;;;;;5013149;28;20965;-73
2021/12/29 05:56:22;;;;;;;1.77;0.80;;;;;;;;;;5013482;28;20415;-73
2021/12/29 05:58:48;;;;;;;1.50;0.60;;;;;;;;;;5013082;28;20509;-72
2021/12/29 06:01:14;;;;;;;3.30;0.70;;;;;;;;;;5014098;28;20481;-71
2021/12/29 06:03:40;;;;;;;3.93;0.80;;;;;;;;;;5013065;28;20429;-71
2021/12/29 06:06:06;;;;;;;10.67;1.00;;;;;;;;;;5013204;28;20523;-71
2021/12/29 06:08:32;;;;;;;1.37;0.60;;;;;;;;;;5012999;28;20414;-73
2021/12/29 06:10:58;;;;;;;1.40;0.70;;;;;;;;;;5011255;28;20433;-72
2021/12/29 06:13:24;;;;;;;1.77;0.83;;;;;;;;;;5012970;28;20441;-72
2021/12/29 06:15:50;;;;;;;1.10;0.60;;;;;;;;;;5012817;28;20429;-72
2021/12/29 06:18:16;;;;;;;5.77;1.00;;;;;;;;;;5013077;28;20422;-73
2021/12/29 06:20:42;;;;;;;3.07;0.77;;;;;;;;;;5012448;28;20409;-72
2021/12/29 06:23:12;;;;;;;1.73;0.70;;;;;;;;;;5012316;28;20472;-74
2021/12/29 06:25:39;;;;;;;2.37;0.87;;;;;;;;;;5012352;28;20547;-72
2021/12/29 06:28:05;;;;;;;1.10;0.80;;;;;;;;;;5012927;28;20414;-73
2021/12/29 06:30:31;;;;;;;7.60;0.90;;;;;;;;;;5012185;28;20846;-72
2021/12/29 06:32:57;;;;;;;2.47;0.90;;;;;;;;;;5012641;28;20629;-73
2021/12/29 06:35:23;;;;;;;1.47;0.73;;;;;;;;;;5012447;28;20424;-73
2021/12/29 06:37:49;;;;;;;3.30;0.90;;;;;;;;;;5012440;28;21367;-72
2021/12/29 06:40:16;;;;;;;2.47;0.70;;;;;;;;;;5012299;28;20453;-70
2021/12/29 06:42:42;;;;;;;2.73;1.10;;;;;;;;;;5012514;28;20426;-73
2021/12/29 06:45:08;;;;;;;2.23;0.90;;;;;;;;;;5012401;28;20580;-73
2021/12/29 06:47:35;;;;;;;4.53;0.83;;;;;;;;;;5012279;28;20870;-75
2021/12/29 06:50:02;;;;;;;9.70;1.40;;;;;;;;;;5012405;28;20418;-74
2021/12/29 06:52:28;;;;;;;3.63;0.80;;;;;;;;;;5011742;28;20475;-72
2021/12/29 06:54:54;;;;;;;2.23;1.10;;;;;;;;;;5012242;28;20421;-73
2021/12/29 06:57:20;;;;;;;6.70;1.40;;;;;;;;;;5012314;28;20420;-74
2021/12/29 06:59:46;;;;;;;3.30;0.90;;;;;;;;;;5012108;28;20410;-72
2021/12/29 07:02:14;;;;;;;1.83;1.07;;;;;;;;;;5011930;28;20545;-73
2021/12/29 07:04:40;;;;;;;1.83;0.80;;;;;;;;;;5012251;28;20468;-73
2021/12/29 07:07:06;;;;;;;1.80;0.80;;;;;;;;;;5012180;28;20424;-73
2021/12/29 07:09:32;;;;;;;1.87;0.90;;;;;;;;;;5011848;28;20406;-72
2021/12/29 07:11:59;;;;;;;2.17;0.80;;;;;;;;;;5011380;28;20410;-72
2021/12/29 07:14:25;;;;;;;3.40;0.70;;;;;;;;;;5013462;28;20432;-73
2021/12/29 07:16:51;;;;;;;1.47;0.80;;;;;;;;;;5011923;28;20416;-74
2021/12/29 07:19:18;;;;;;;1.20;1.00;;;;;;;;;;5012123;28;20567;-75
2021/12/29 07:21:44;;;;;;;2.50;0.83;;;;;;;;;;5010871;28;20945;-74
2021/12/29 07:24:10;;;;;;;1.10;0.57;;;;;;;;;;5002117;28;20427;-74
2021/12/29 07:26:36;;;;;;;1.73;0.80;;;;;;;;;;4992299;28;20485;-72
2021/12/29 07:29:04;;;;;;;2.10;0.93;;;;;;;;;;5007846;28;20445;-71
2021/12/29 07:31:30;;;;;;;3.23;0.80;;;;;;;;;;5011082;28;20432;-71
2021/12/29 07:33:57;;;;;;;1.23;0.70;;;;;;;;;;5011796;28;20465;-71
2021/12/29 07:36:22;;;;;;;1.50;0.90;;;;;;;;;;5011667;28;20509;-73
2021/12/29 07:38:49;;;;;;;1.10;0.70;;;;;;;;;;5010861;28;20506;-73
2021/12/29 07:41:15;;;;;;;1.30;0.77;;;;;;;;;;5011464;28;20449;-73
2021/12/29 07:43:41;;;;;;;5.00;0.90;;;;;;;;;;5011243;28;20507;-72
2021/12/29 07:46:07;;;;;;;1.20;0.70;;;;;;;;;;5004378;28;20977;-73
2021/12/29 07:48:34;;;;;;;1.77;0.83;;;;;;;;;;5011051;28;20429;-73
2021/12/29 07:51:00;;;;;;;2.00;1.07;;;;;;;;;;5012561;28;20579;-73
2021/12/29 07:53:27;;;;;;;1.70;0.73;;;;;;;;;;5010625;28;20555;-71
2021/12/29 07:55:53;;;;;;;1.80;0.70;;;;;;;;;;5011331;28;20415;-71
2021/12/29 07:58:19;;;;;;;1.70;0.80;;;;;;;;;;5011247;28;20933;-72
2021/12/29 08:00:45;;;;;;;1.43;0.73;;;;;;;;;;5006114;28;20436;-72
2021/12/29 08:03:12;;;;;;;4.30;1.10;;;;;;;;;;5010664;28;20946;-73
2021/12/29 08:05:39;;;;;;;1.30;0.70;;;;;;;;;;5011420;28;20461;-72
2021/12/29 08:08:06;;;;;;;1.93;0.70;;;;;;;;;;5008330;28;20422;-73
2021/12/29 08:10:33;;;;;;;1.33;0.80;;;;;;;;;;5011121;28;20437;-72
2021/12/29 08:12:59;;;;;;;1.87;1.13;;;;;;;;;;5010409;28;20448;-72
2021/12/29 08:15:25;;;;;;;1.33;0.80;;;;;;;;;;5010881;28;20803;-73
2021/12/29 08:17:51;;;;;;;3.47;0.80;;;;;;;;;;5010711;28;20853;-73
2021/12/29 08:20:17;;;;;;;1.30;0.67;;;;;;;;;;5009391;28;20429;-72
2021/12/29 08:22:43;;;;;;;1.50;0.80;;;;;;;;;;5009477;28;20472;-73
2021/12/29 08:25:09;;;;;;;1.63;0.90;;;;;;;;;;5006241;28;20499;-73
2021/12/29 08:27:35;;;;;;;1.70;0.90;;;;;;;;;;5011493;28;20468;-71
2021/12/29 08:30:01;;;;;;;1.10;0.60;;;;;;;;;;5011039;28;20413;-72
2021/12/29 08:32:28;;;;;;;4.83;0.97;;;;;;;;;;5010919;28;20460;-69
2021/12/29 08:34:54;;;;;;;1.67;0.73;;;;;;;;;;5010337;28;20449;-73
2021/12/29 08:37:20;;;;;;;1.00;0.70;;;;;;;;;;5013988;28;20421;-74
2021/12/29 08:39:46;;;;;;;3.57;1.10;;;;;;;;;;5014721;28;20429;-72
2021/12/29 08:42:12;;;;;;;3.20;1.20;;;;;;;;;;5014564;28;20456;-73
2021/12/29 08:44:38;;;;;;;2.30;1.20;;;;;;;;;;5014429;28;20546;-73
2021/12/29 08:47:05;;;;;;;3.90;1.10;;;;;;;;;;5014756;28;20449;-72
2021/12/29 08:49:31;;;;;;;1.70;1.03;;;;;;;;;;5013801;28;20416;-72
2021/12/29 08:51:57;;;;;;;2.13;1.00;;;;;;;;;;5011871;28;20433;-72
2021/12/29 08:54:24;;;;;;;4.03;1.10;;;;;;;;;;5012309;28;20430;-71
2021/12/29 08:56:52;;;;;;;5.07;1.63;;;;;;;;;;5012361;28;20417;-72
2021/12/29 08:59:18;;;;;;;3.77;0.90;;;;;;;;;;5012115;28;20909;-73
2021/12/29 09:01:44;;;;;;;2.00;1.20;;;;;;;;;;5011585;28;20432;-71
2021/12/29 09:04:10;;;;;;;1.20;0.70;;;;;;;;;;5012106;28;20452;-72
2021/12/29 09:06:35;;;;;;;4.50;1.00;;;;;;;;;;5013362;28;20461;-75
2021/12/29 09:09:02;;;;;;;1.67;1.10;;;;;;;;;;5026060;28;20962;-76
2021/12/29 09:11:30;;;;;;;2.23;1.03;;;;;;;;;;5013783;28;20433;-75
2021/12/29 09:13:56;;;;;;;2.27;1.30;;;;;;;;;;5013758;28;20444;-75
2021/12/29 09:16:22;;;;;;;1.37;1.00;;;;;;;;;;5014368;28;20420;-72
2021/12/29 09:18:48;;;;;;;4.97;1.77;;;;;;;;;;5014348;28;20413;-75
2021/12/29 09:21:15;;;;;;;5.13;1.70;;;;;;;;;;5013474;28;20773;-72
2021/12/29 09:23:42;;;;;;;7.77;2.03;;;;;;;;;;5011948;28;20930;-73
2021/12/29 09:26:10;;;;;;;2.30;1.33;;;;;;;;;;5013568;28;21001;-73
2021/12/29 09:28:36;;;;;;;1.70;1.00;;;;;;;;;;5013847;28;20502;-72
2021/12/29 09:31:02;;;;;;;1.60;1.17;;;;;;;;;;5013586;28;20440;-73
2021/12/29 09:33:28;;;;;;;3.23;1.50;;;;;;;;;;5015090;28;20421;-72
2021/12/29 09:36:01;;;;;;;4.43;1.30;;;;;;;;;;5013654;28;20412;-72
2021/12/29 09:38:28;;;;;;;4.37;1.73;;;;;;;;;;5013556;28;20413;-73
2021/12/29 09:40:54;;;;;;;2.67;1.30;;;;;;;;;;5013343;28;20405;-72
2021/12/29 09:43:21;;;;;;;7.73;1.40;;;;;;;;;;5013672;28;20429;-72
2021/12/29 09:45:48;;;;;;;5.10;1.33;;;;;;;;;;5013246;28;20461;-73
2021/12/29 09:48:14;;;;;;;3.60;1.20;;;;;;;;;;5008438;28;20423;-72
2021/12/29 09:50:41;;;;;;;1.67;1.20;;;;;;;;;;5008058;28;20472;-73
2021/12/29 09:53:08;;;;;;;5.57;1.30;;;;;;;;;;5001527;28;20468;-73
2021/12/29 09:55:34;;;;;;;14.53;1.60;;;;;;;;;;5004196;28;20438;-72
2021/12/29 09:58:00;;;;;;;3.83;1.37;;;;;;;;;;4993638;28;20407;-73
2021/12/29 10:00:28;;;;;;;3.77;1.63;;;;;;;;;;5009027;28;20420;-73
2021/12/29 10:02:55;;;;;;;1.90;1.20;;;;;;;;;;5012300;28;20997;-73
2021/12/29 10:05:24;;;;;;;3.40;1.10;;;;;;;;;;4993402;28;20450;-73
2021/12/29 10:08:02;;;;;;;1.87;0.90;;;;;;;;;;4993568;28;20410;-73
2021/12/29 10:10:29;;;;;;;2.40;1.00;;;;;;;;;;4994105;28;20433;-73
2021/12/29 10:12:55;;;;;;;3.33;1.07;;;;;;;;;;5011178;28;20747;-72
2021/12/29 10:15:27;;;;;;;1.83;0.93;;;;;;;;;;5014130;28;20402;-73
2021/12/29 10:18:00;;;;;;;2.10;1.00;;;;;;;;;;5012990;28;20417;-73
2021/12/29 10:20:26;;;;;;;1.93;1.07;;;;;;;;;;5021479;28;20920;-73
2021/12/29 10:22:56;;;;;;;2.17;1.17;;;;;;;;;;5032479;28;20472;-73
2021/12/29 10:25:24;;;;;;;1.73;0.80;;;;;;;;;;5029313;28;20538;-73
2021/12/29 10:27:51;;;;;;;2.80;1.10;;;;;;;;;;5012674;28;20416;-73
2021/12/29 10:30:18;;;;;;;2.33;0.90;;;;;;;;;;5012276;28;20418;-73
2021/12/29 10:32:44;;;;;;;1.60;1.00;;;;;;;;;;5012513;28;20421;-73
2021/12/29 10:35:19;;;;;;;1.30;0.70;;;;;;;;;;5009161;28;20426;-73
2021/12/29 10:37:45;;;;;;;1.90;0.90;;;;;;;;;;5012367;28;20908;-73
2021/12/29 10:40:15;;;;;;;2.40;0.80;;;;;;;;;;5010272;28;20425;-73
2021/12/29 10:42:52;;;;;;;2.60;1.17;;;;;;;;;;5011826;28;20952;-73
2021/12/29 10:45:27;;;;;;;1.47;0.70;;;;;;;;;;5012426;28;21669;-73
2021/12/29 10:47:53;;;;;;;1.33;0.90;;;;;;;;;;5011880;28;20476;-73
2021/12/29 10:50:19;;;;;;;2.17;1.10;;;;;;;;;;5011405;28;20894;-72
2021/12/29 10:52:45;;;;;;;3.30;1.00;;;;;;;;;;5011777;28;20918;-73
2021/12/29 10:55:21;;;;;;;2.03;0.90;;;;;;;;;;5011962;28;20499;-73
2021/12/29 10:57:59;;;;;;;1.23;0.70;;;;;;;;;;5011612;28;20854;-73
2021/12/29 11:00:25;;;;;;;1.60;0.90;;;;;;;;;;5011963;28;20440;-73
2021/12/29 11:02:52;;;;;;;1.20;0.70;;;;;;;;;;5011622;28;20491;-73
2021/12/29 11:05:18;;;;;;;1.63;0.80;;;;;;;;;;5011763;28;20489;-72
2021/12/29 11:07:45;;;;;;;4.43;0.90;;;;;;;;;;5011795;28;20421;-72
2021/12/29 11:10:12;;;;;;;2.17;0.90;;;;;;;;;;5011303;28;21108;-73
2021/12/29 11:12:44;;;;;;;1.47;0.83;;;;;;;;;;5011754;28;20433;-73
2021/12/29 11:15:21;;;;;;;1.80;0.80;;;;;;;;;;5010770;28;20414;-73
2021/12/29 11:17:48;;;;;;;1.60;0.70;;;;;;;;;;5009192;28;20925;-73
2021/12/29 11:20:22;;;;;;;2.07;1.03;;;;;;;;;;4993879;28;20422;-73
2021/12/29 11:22:48;;;;;;;3.03;1.03;;;;;;;;;;4997570;28;20929;-72
2021/12/29 11:25:15;;;;;;;2.87;1.37;;;;;;;;;;5011897;28;20919;-72
2021/12/29 11:27:41;;;;;;;1.60;0.90;;;;;;;;;;5011431;28;20410;-72
2021/12/29 11:30:12;;;;;;;2.33;1.10;;;;;;;;;;5011209;28;20429;-73
2021/12/29 11:32:42;;;;;;;2.20;1.00;;;;;;;;;;5011613;28;20480;-72
2021/12/29 11:35:09;;;;;;;1.37;0.83;;;;;;;;;;5011538;28;20421;-72
2021/12/29 11:37:36;;;;;;;3.50;1.10;;;;;;;;;;5009141;28;20430;-72
2021/12/29 11:40:03;;;;;;;1.77;0.80;;;;;;;;;;5002377;28;20483;-72
2021/12/29 11:42:29;;;;;;;1.40;1.00;;;;;;;;;;4995247;28;20449;-73
2021/12/29 11:44:55;;;;;;;1.53;1.00;;;;;;;;;;5006853;28;20957;-73
2021/12/29 11:47:21;;;;;;;1.60;1.10;;;;;;;;;;5011270;28;20471;-73
2021/12/29 11:49:48;;;;;;;1.97;1.03;;;;;;;;;;5000096;28;20430;-72
2021/12/29 11:52:29;;;;;;;2.07;0.80;;;;;;;;;;5012231;28;20452;-73
2021/12/29 11:55:07;;;;;;;1.60;1.03;;;;;;;;;;4992118;28;20508;-72
2021/12/29 11:57:34;;;;;;;2.60;0.90;;;;;;;;;;4999464;28;20417;-73
2021/12/29 12:00:11;;;;;;;2.90;1.10;;;;;;;;;;5010692;28;20426;-72
2021/12/29 12:02:38;;;;;;;1.57;0.97;;;;;;;;;;5010472;28;20425;-73
2021/12/29 12:05:05;;;;;;;1.30;0.80;;;;;;;;;;5005912;28;20461;-73
2021/12/29 12:07:31;;;;;;;2.13;0.90;;;;;;;;;;5009493;28;20418;-72
2021/12/29 12:10:01;;;;;;;2.37;0.80;;;;;;;;;;5000654;28;20436;-72
2021/12/29 12:12:37;;;;;;;3.47;0.90;;;;;;;;;;5023767;28;20432;-72
2021/12/29 12:15:07;;;;;;;1.10;0.70;;;;;;;;;;5004536;28;20479;-73
2021/12/29 12:17:33;;;;;;;2.23;1.10;;;;;;;;;;5010751;28;20430;-73
2021/12/29 12:20:02;;;;;;;1.40;0.80;;;;;;;;;;5008987;28;20422;-72
2021/12/29 12:22:29;;;;;;;2.23;0.80;;;;;;;;;;5014701;28;20763;-72
2021/12/29 12:24:55;;;;;;;1.60;0.90;;;;;;;;;;5002143;28;20497;-73
2021/12/29 12:27:30;;;;;;;2.17;0.87;;;;;;;;;;4994904;28;20417;-73
2021/12/29 12:30:05;;;;;;;1.33;0.87;;;;;;;;;;4994343;28;20857;-72
2021/12/29 12:32:47;;;;;;;1.80;0.80;;;;;;;;;;4994350;28;20420;-72
2021/12/29 12:35:14;;;;;;;4.23;1.17;;;;;;;;;;4995065;28;20462;-72
2021/12/29 12:37:42;;;;;;;2.63;0.90;;;;;;;;;;4995109;28;20418;-72
2021/12/29 12:40:14;;;;;;;1.23;0.80;;;;;;;;;;4994631;28;20434;-72
2021/12/29 12:42:41;;;;;;;2.20;0.80;;;;;;;;;;4994827;28;20496;-73
2021/12/29 12:45:19;;;;;;;1.00;0.60;;;;;;;;;;4995002;28;20461;-72
2021/12/29 12:47:46;;;;;;;1.10;0.73;;;;;;;;;;4994789;28;20509;-72
2021/12/29 12:50:22;;;;;;;1.73;0.80;;;;;;;;;;4994625;28;20494;-72
2021/12/29 12:52:51;;;;;;;1.53;0.90;;;;;;;;;;4994506;28;20426;-72
2021/12/29 12:55:17;;;;;;;2.30;0.87;;;;;;;;;;4994689;28;20423;-72
2021/12/29 12:57:45;;;;;;;1.27;0.73;;;;;;;;;;4994791;28;20923;-72
2021/12/29 13:00:19;;;;;;;1.10;0.70;;;;;;;;;;4994447;28;20504;-72
2021/12/29 13:02:53;;;;;;;2.60;0.90;;;;;;;;;;4994407;28;20446;-72
2021/12/29 13:05:21;;;;;;;1.47;0.83;;;;;;;;;;4994293;28;20978;-72
2021/12/29 13:07:58;;;;;;;5.23;0.83;;;;;;;;;;4994614;28;20433;-72
2021/12/29 13:10:27;;;;;;;1.00;0.60;;;;;;;;;;4994061;28;20520;-72
2021/12/29 13:12:58;;;;;;;1.70;0.70;;;;;;;;;;4994319;28;20426;-72
2021/12/29 13:15:25;;;;;;;1.00;0.70;;;;;;;;;;4994492;28;20461;-72
2021/12/29 13:17:51;;;;;;;1.53;1.00;;;;;;;;;;4993961;28;20418;-72
2021/12/29 13:20:17;;;;;;;1.43;0.70;;;;;;;;;;4993538;28;20875;-72
2021/12/29 13:22:46;;;;;;;1.37;0.70;;;;;;;;;;4994176;28;20430;-72
2021/12/29 13:25:15;;;;;;;2.10;1.00;;;;;;;;;;4994054;28;21016;-72
2021/12/29 13:27:42;;;;;;;1.30;0.83;;;;;;;;;;4994250;28;20414;-73
2021/12/29 13:30:10;;;;;;;1.50;0.80;;;;;;;;;;4993551;28;20422;-72
2021/12/29 13:32:47;;;;;;;1.30;0.80;;;;;;;;;;4995105;28;20751;-72
2021/12/29 13:35:13;;;;;;;1.53;0.80;;;;;;;;;;4994183;28;20414;-72
2021/12/29 13:37:39;;;;;;;1.37;0.63;;;;;;;;;;4994083;28;20446;-72
2021/12/29 13:40:09;;;;;;;1.20;0.77;;;;;;;;;;4993699;28;20429;-72
2021/12/29 13:42:39;;;;;;;1.30;0.80;;;;;;;;;;4993517;28;20434;-72
2021/12/29 13:45:06;;;;;;;1.23;0.70;;;;;;;;;;4993839;28;20819;-72
2021/12/29 13:47:32;;;;;;;1.10;0.70;;;;;;;;;;4993628;28;20423;-73
2021/12/29 13:50:10;;;;;;;1.20;0.73;;;;;;;;;;4993863;28;20418;-72
2021/12/29 13:52:36;;;;;;;1.00;0.60;;;;;;;;;;4993531;28;20481;-72
2021/12/29 13:55:02;;;;;;;1.77;0.87;;;;;;;;;;4993488;28;20426;-72
2021/12/29 13:57:29;;;;;;;1.40;0.70;;;;;;;;;;4993781;28;20411;-72
2021/12/29 13:59:55;;;;;;;1.43;0.80;;;;;;;;;;4993657;28;20415;-72
2021/12/29 14:02:21;;;;;;;1.10;0.80;;;;;;;;;;4993050;28;20469;-72
2021/12/29 14:04:47;;;;;;;1.23;0.70;;;;;;;;;;4993367;28;20414;-72
2021/12/29 14:07:16;;;;;;;1.73;0.87;;;;;;;;;;4993369;28;20836;-72
2021/12/29 14:09:43;;;;;;;1.53;0.80;;;;;;;;;;4994656;28;20425;-72
2021/12/29 14:12:11;;;;;;;1.83;0.80;;;;;;;;;;5002939;28;20422;-71
2021/12/29 14:14:38;;;;;;;1.23;0.90;;;;;;;;;;4998138;28;20524;-72
2021/12/29 14:17:04;;;;;;;1.07;0.70;;;;;;;;;;5012164;28;20460;-72
2021/12/29 14:19:31;;;;;;;3.80;0.87;;;;;;;;;;5012263;28;20440;-72
2021/12/29 14:21:58;;;;;;;2.03;0.90;;;;;;;;;;5013586;28;20448;-72
2021/12/29 14:24:25;;;;;;;1.67;0.70;;;;;;;;;;5013680;28;20455;-71
2021/12/29 14:26:57;;;;;;;1.17;0.70;;;;;;;;;;5012528;28;20468;-72
2021/12/29 14:29:36;;;;;;;1.50;0.80;;;;;;;;;;5012451;28;20441;-72
2021/12/29 14:32:03;;;;;;;2.23;1.00;;;;;;;;;;5011165;28;20416;-72
2021/12/29 14:34:46;;;;;;;2.10;0.77;;;;;;;;;;5012345;28;21035;-72
2021/12/29 14:37:14;;;;;;;1.10;0.80;;;;;;;;;;5012457;28;20464;-72
2021/12/29 14:39:41;;;;;;;2.47;0.90;;;;;;;;;;5012113;28;20457;-72
2021/12/29 14:42:10;;;;;;;2.27;0.90;;;;;;;;;;5011158;28;20429;-72
2021/12/29 14:44:42;;;;;;;1.47;0.80;;;;;;;;;;5011958;28;20445;-72
2021/12/29 14:47:10;;;;;;;1.57;0.70;;;;;;;;;;5013780;28;20408;-72
2021/12/29 14:49:37;;;;;;;1.93;0.90;;;;;;;;;;5012496;28;20953;-72